Time,TemperatureF,DewpointF,PressureIn,WindDirection,WindDirectionDegrees,WindSpeedMPH,WindSpeedGustMPH,Humidity,HourlyPrecipIn,Conditions,Clouds,dailyrainin,SoftwareType,DateUTC
2013-09-05 00:00:00,82.5,78.5,29.94,ESE,112,7.0,16.0,88,0.00,RA,,0.00,WeatherDisplay:10.37,2013-09-05 06:00:00,
2013-09-05 00:15:00,83.0,78.7,29.93,ESE,113,6.0,19.0,87,0.00,CLR,,0.00,WeatherDisplay:10.37,2013-09-05 06:15:00,
2013-09-05 00:30:00,83.0,78.0,29.92,ESE,103,8.0,18.0,85,0.00,CLR,,0.00,WeatherDisplay:10.37,2013-09-05 06:30:00,
2013-09-05 00:45:00,83.1,77.8,29.92,ESE,103,9.0,19.0,84,0.00,CLR,,0.00,WeatherDisplay:10.37,2013-09-05 06:45:00,
2013-09-05 01:00:00,83.2,77.9,29.92,ESE,103,7.0,14.0,84,0.00,CLR,,0.00,WeatherDisplay:10.37,2013-09-05 07:00:00,
2013-09-05 01:15:00,83.1,77.8,29.91,ESE,103,7.0,14.0,84,0.00,CLR,,0.00,WeatherDisplay:10.37,2013-09-05 07:15:00,
2013-09-05 01:30:00,83.1,77.8,29.90,ESE,103,9.0,14.0,84,0.00,CLR,,0.00,WeatherDisplay:10.37,2013-09-05 07:30:00,
2013-09-05 01:45:00,83.0,77.3,29.90,East,100,12.0,15.0,83,0.00,CLR,,0.00,WeatherDisplay:10.37,2013-09-05 07:45:00,
2013-09-05 02:00:00,83.1,77.8,29.89,ESE,107,8.0,14.0,84,0.00,CLR,,0.00,WeatherDisplay:10.37,2013-09-05 08:00:00,
2013-09-05 02:15:00,83.2,77.9,29.89,ESE,108,8.0,16.0,84,0.00,CLR,,0.00,WeatherDisplay:10.37,2013-09-05 08:15:00,
2013-09-05 02:30:00,83.0,76.9,29.89,ESE,107,13.0,14.0,82,0.00,CLR,,0.00,WeatherDisplay:10.37,2013-09-05 08:30:00,
2013-09-05 02:45:00,83.0,77.3,29.89,ESE,109,10.0,15.0,83,0.00,CLR,,0.00,WeatherDisplay:10.37,2013-09-05 08:45:00,
2013-09-05 03:00:00,83.1,77.4,29.88,ESE,110,10.0,18.0,83,0.00,CLR,,0.00,WeatherDisplay:10.37,2013-09-05 09:00:00,
2013-09-05 03:15:00,83.2,76.7,29.88,ESE,117,13.0,16.0,81,0.00,CLR,,0.00,WeatherDisplay:10.37,2013-09-05 09:15:00,
2013-09-05 03:30:00,83.1,77.0,29.88,ESE,115,10.0,16.0,82,0.00,CLR,,0.00,WeatherDisplay:10.37,2013-09-05 09:30:00,
2013-09-05 03:45:00,83.1,77.4,29.88,ESE,115,10.0,16.0,83,0.00,CLR,,0.00,WeatherDisplay:10.37,2013-09-05 09:45:00,
2013-09-05 04:00:00,83.0,77.7,29.89,ESE,109,6.0,14.0,84,0.00,CLR,,0.00,WeatherDisplay:10.37,2013-09-05 10:00:00,
2013-09-05 04:15:00,82.9,77.2,29.90,ESE,106,10.0,14.0,83,0.00,CLR,,0.00,WeatherDisplay:10.37,2013-09-05 10:15:00,
2013-09-05 04:30:00,83.0,77.6,29.90,ESE,110,10.0,13.0,84,0.00,CLR,,0.00,WeatherDisplay:10.37,2013-09-05 10:30:00,
2013-09-05 04:45:00,83.0,77.3,29.90,ESE,113,10.0,13.0,83,0.00,CLR,,0.00,WeatherDisplay:10.37,2013-09-05 10:45:00,
2013-09-05 05:00:00,83.0,77.7,29.90,ESE,114,8.0,13.0,84,0.00,CLR,,0.00,WeatherDisplay:10.37,2013-09-05 11:00:00,
2013-09-05 05:15:00,82.8,77.8,29.91,ESE,115,9.0,13.0,85,0.00,CLR,,0.00,WeatherDisplay:10.37,2013-09-05 11:15:00,
2013-09-05 05:30:00,82.8,77.5,29.91,ESE,115,7.0,12.0,84,0.00,CLR,,0.00,WeatherDisplay:10.37,2013-09-05 11:30:00,
2013-09-05 05:45:00,82.9,77.6,29.92,ESE,117,8.0,13.0,84,0.00,CLR,,0.00,WeatherDisplay:10.37,2013-09-05 11:45:00,
2013-09-05 06:00:00,82.9,77.6,29.92,ESE,115,9.0,13.0,84,0.00,CLR,,0.00,WeatherDisplay:10.37,2013-09-05 12:00:00,
2013-09-05 06:15:00,83.0,77.3,29.92,ESE,118,8.0,12.0,83,0.00,CLR,,0.00,WeatherDisplay:10.37,2013-09-05 12:15:00,
2013-09-05 06:30:00,83.3,77.6,29.93,ESE,120,7.0,13.0,83,0.00,CLR,,0.00,WeatherDisplay:10.37,2013-09-05 12:30:00,
2013-09-05 06:45:00,83.8,77.4,29.93,ESE,121,7.0,10.0,81,0.00,CLR,,0.00,WeatherDisplay:10.37,2013-09-05 12:45:00,
2013-09-05 07:00:00,84.1,77.6,29.93,ESE,113,7.0,12.0,81,0.00,CLR,,0.00,WeatherDisplay:10.37,2013-09-05 13:00:00,
2013-09-05 07:15:00,84.6,78.1,29.93,ESE,116,8.0,13.0,81,0.00,CLR,,0.00,WeatherDisplay:10.37,2013-09-05 13:15:00,
2013-09-05 07:30:00,84.9,78.0,29.93,ESE,113,6.0,12.0,80,0.00,CLR,,0.00,WeatherDisplay:10.37,2013-09-05 13:30:00,
2013-09-05 07:45:00,85.1,77.8,29.94,ESE,112,8.0,12.0,79,0.00,CLR,,0.00,WeatherDisplay:10.37,2013-09-05 13:45:00,
2013-09-05 08:00:00,85.3,78.0,29.94,ESE,112,8.0,13.0,79,0.00,CLR,,0.00,WeatherDisplay:10.37,2013-09-05 14:00:00,
2013-09-05 08:15:00,85.6,78.7,29.94,East,96,5.0,12.0,80,0.00,CLR,,0.00,WeatherDisplay:10.37,2013-09-05 14:15:00,
2013-09-05 08:30:00,86.0,78.7,29.94,ESE,110,6.0,12.0,79,0.00,CLR,,0.00,WeatherDisplay:10.37,2013-09-05 14:30:00,
2013-09-05 08:45:00,86.4,78.7,29.94,ESE,106,5.0,12.0,78,0.00,CLR,,0.00,WeatherDisplay:10.37,2013-09-05 14:45:00,
2013-09-05 09:00:00,86.3,78.6,29.94,East,94,8.0,14.0,78,0.00,CLR,,0.00,WeatherDisplay:10.37,2013-09-05 15:00:00,
2013-09-05 09:15:00,86.4,78.7,29.95,East,97,6.0,15.0,78,0.00,CLR,,0.00,WeatherDisplay:10.37,2013-09-05 15:15:00,
2013-09-05 09:30:00,86.3,78.6,29.95,ESE,110,7.0,14.0,78,0.00,CLR,,0.00,WeatherDisplay:10.37,2013-09-05 15:30:00,
2013-09-05 09:45:00,87.0,78.9,29.95,East,92,7.0,15.0,77,0.00,CLR,,0.00,WeatherDisplay:10.37,2013-09-05 15:45:00,
2013-09-05 10:00:00,86.8,79.2,29.95,East,98,7.0,13.0,78,0.00,CLR,,0.00,WeatherDisplay:10.37,2013-09-05 16:00:00,
2013-09-05 10:15:00,87.0,79.3,29.95,East,98,6.0,12.0,78,0.00,CLR,,0.00,WeatherDisplay:10.37,2013-09-05 16:15:00,
2013-09-05 10:30:00,87.1,79.0,29.95,East,101,6.0,14.0,77,0.00,CLR,,0.00,WeatherDisplay:10.37,2013-09-05 16:30:00,
2013-09-05 10:45:00,87.2,79.1,29.95,East,98,6.0,14.0,77,0.00,CLR,,0.00,WeatherDisplay:10.37,2013-09-05 16:45:00,
2013-09-05 11:00:00,87.5,79.0,29.95,ESE,103,6.0,12.0,76,0.00,CLR,,0.00,WeatherDisplay:10.37,2013-09-05 17:00:00,
2013-09-05 11:15:00,87.5,79.3,29.94,ESE,106,5.0,10.0,77,0.00,CLR,,0.00,WeatherDisplay:10.37,2013-09-05 17:15:00,
2013-09-05 11:30:00,87.7,79.6,29.94,ESE,104,5.0,10.0,77,0.00,CLR,,0.00,WeatherDisplay:10.37,2013-09-05 17:30:00,
2013-09-05 11:45:00,87.8,78.9,29.93,ESE,105,6.0,8.0,75,0.00,CLR,,0.00,WeatherDisplay:10.37,2013-09-05 17:45:00,
2013-09-05 12:00:00,88.1,79.2,29.93,ESE,104,3.0,8.0,75,0.00,CLR,,0.00,WeatherDisplay:10.37,2013-09-05 18:00:00,
2013-09-05 12:15:00,88.3,79.0,29.93,East,94,5.0,8.0,74,0.00,CLR,,0.00,WeatherDisplay:10.37,2013-09-05 18:15:00,
2013-09-05 12:30:00,87.7,79.2,29.93,ESE,102,3.0,8.0,76,0.00,CLR,,0.00,WeatherDisplay:10.37,2013-09-05 18:30:00,
2013-09-05 12:45:00,87.8,78.9,29.92,East,95,8.0,9.0,75,0.00,CLR,,0.00,WeatherDisplay:10.37,2013-09-05 18:45:00,
2013-09-05 13:00:00,87.9,79.0,29.91,East,84,5.0,8.0,75,0.00,CLR,,0.00,WeatherDisplay:10.37,2013-09-05 19:00:00,
2013-09-05 13:15:00,87.8,79.7,29.91,East,89,6.0,9.0,77,0.00,CLR,,0.00,WeatherDisplay:10.37,2013-09-05 19:15:00,
2013-09-05 13:30:00,87.5,79.0,29.90,East,93,7.0,10.0,76,0.00,CLR,,0.00,WeatherDisplay:10.37,2013-09-05 19:30:00,
2013-09-05 13:45:00,87.7,79.6,29.90,East,87,7.0,12.0,77,0.00,CLR,,0.00,WeatherDisplay:10.37,2013-09-05 19:45:00,
2013-09-05 14:00:00,87.7,79.2,29.90,East,92,7.0,10.0,76,0.00,CLR,,0.00,WeatherDisplay:10.37,2013-09-05 20:00:00,
2013-09-05 14:15:00,87.6,79.5,29.89,East,87,6.0,10.0,77,0.00,CLR,,0.00,WeatherDisplay:10.37,2013-09-05 20:15:00,
2013-09-05 14:30:00,86.6,78.5,29.89,East,90,8.0,12.0,77,0.00,CLR,,0.00,WeatherDisplay:10.37,2013-09-05 20:30:00,
2013-09-05 14:45:00,87.3,79.2,29.89,East,92,5.0,9.0,77,0.00,CLR,,0.00,WeatherDisplay:10.37,2013-09-05 20:45:00,
2013-09-05 15:00:00,86.7,79.0,29.88,East,89,2.0,10.0,78,0.00,CLR,,0.00,WeatherDisplay:10.37,2013-09-05 21:00:00,
2013-09-05 15:15:00,86.8,78.7,29.88,East,100,3.0,8.0,77,0.00,CLR,,0.00,WeatherDisplay:10.37,2013-09-05 21:15:00,
2013-09-05 15:30:00,87.1,79.0,29.88,ESE,106,2.0,8.0,77,0.00,CLR,,0.00,WeatherDisplay:10.37,2013-09-05 21:30:00,
2013-09-05 15:45:00,87.0,78.5,29.88,East,85,5.0,8.0,76,0.00,CLR,,0.00,WeatherDisplay:10.37,2013-09-05 21:45:00,
2013-09-05 16:00:00,87.1,79.0,29.88,East,91,3.0,9.0,77,0.00,CLR,,0.00,WeatherDisplay:10.37,2013-09-05 22:00:00,
2013-09-05 16:15:00,86.6,78.9,29.88,East,87,3.0,8.0,78,0.00,CLR,,0.00,WeatherDisplay:10.37,2013-09-05 22:15:00,
2013-09-05 16:26:00,86.2,78.5,29.88,East,88,5.0,8.0,78,0.00,CLR,,0.00,WeatherDisplay:10.37,2013-09-05 22:26:00,
2013-09-05 16:45:00,85.3,78.0,29.88,ENE,74,6.0,9.0,79,0.00,CLR,,0.00,WeatherDisplay:10.37,2013-09-05 22:45:00,
2013-09-05 17:00:00,84.9,78.0,29.88,East,84,7.0,9.0,80,0.00,CLR,,0.00,WeatherDisplay:10.37,2013-09-05 23:00:00,
2013-09-05 17:15:00,84.5,78.0,29.88,East,86,7.0,9.0,81,0.00,CLR,,0.00,WeatherDisplay:10.37,2013-09-05 23:15:00,
2013-09-05 17:30:00,84.4,77.9,29.89,East,91,5.0,12.0,81,0.00,CLR,,0.00,WeatherDisplay:10.37,2013-09-05 23:30:00,
2013-09-05 17:45:00,84.4,78.7,29.89,East,87,6.0,10.0,83,0.00,CLR,,0.00,WeatherDisplay:10.37,2013-09-05 23:45:00,
2013-09-05 18:00:00,84.1,78.4,29.89,East,87,7.0,10.0,83,0.00,CLR,,0.00,WeatherDisplay:10.37,2013-09-06 00:00:00,
2013-09-05 18:15:00,84.0,78.3,29.89,East,79,5.0,9.0,83,0.00,CLR,,0.00,WeatherDisplay:10.37,2013-09-06 00:15:00,
2013-09-05 18:30:00,84.0,78.3,29.89,East,91,7.0,10.0,83,0.00,CLR,,0.00,WeatherDisplay:10.37,2013-09-06 00:30:00,
2013-09-05 18:45:00,83.9,78.2,29.89,ENE,76,7.0,12.0,83,0.00,CLR,,0.00,WeatherDisplay:10.37,2013-09-06 00:45:00,
2013-09-05 19:00:00,83.9,78.1,29.90,ENE,74,5.0,12.0,83,0.00,CLR,,0.00,WeatherDisplay:10.37,2013-09-06 01:00:00,
2013-09-05 19:15:00,83.9,77.8,29.90,East,87,3.0,13.0,82,0.00,CLR,,0.00,WeatherDisplay:10.37,2013-09-06 01:15:00,
2013-09-05 19:30:00,84.0,78.3,29.91,ENE,70,3.0,12.0,83,0.00,CLR,,0.00,WeatherDisplay:10.37,2013-09-06 01:30:00,
2013-09-05 19:45:00,83.9,77.8,29.92,ENE,76,5.0,13.0,82,0.00,CLR,,0.00,WeatherDisplay:10.37,2013-09-06 01:45:00,
2013-09-05 20:00:00,84.1,78.4,29.93,East,84,6.0,13.0,83,0.00,CLR,,0.00,WeatherDisplay:10.37,2013-09-06 02:00:00,
2013-09-05 20:15:00,84.2,78.4,29.93,East,85,8.0,13.0,83,0.00,CLR,,0.00,WeatherDisplay:10.37,2013-09-06 02:15:00,
2013-09-05 20:30:00,84.2,78.5,29.93,East,96,12.0,15.0,83,0.00,CLR,,0.00,WeatherDisplay:10.37,2013-09-06 02:30:00,
2013-09-05 20:45:00,84.1,78.4,29.94,East,87,12.0,15.0,83,0.00,CLR,,0.00,WeatherDisplay:10.37,2013-09-06 02:45:00,
2013-09-05 21:00:00,84.2,78.8,29.95,East,83,12.0,15.0,84,0.00,CLR,,0.00,WeatherDisplay:10.37,2013-09-06 03:00:00,
2013-09-05 21:15:00,84.3,78.9,29.95,East,97,9.0,15.0,84,0.00,CLR,,0.00,WeatherDisplay:10.37,2013-09-06 03:15:00,
2013-09-05 21:30:00,84.3,78.6,29.95,ESE,104,7.0,14.0,83,0.00,CLR,,0.00,WeatherDisplay:10.37,2013-09-06 03:30:00,
2013-09-05 21:45:00,84.3,79.3,29.96,East,95,8.0,14.0,85,0.00,CLR,,0.00,WeatherDisplay:10.37,2013-09-06 03:45:00,
2013-09-05 22:00:00,84.1,78.4,29.96,East,95,6.0,12.0,83,0.00,CLR,,0.00,WeatherDisplay:10.37,2013-09-06 04:00:00,
2013-09-05 22:15:00,84.2,78.8,29.96,East,98,3.0,13.0,84,0.00,CLR,,0.00,WeatherDisplay:10.37,2013-09-06 04:15:00,
2013-09-05 22:30:00,84.1,78.4,29.96,East,92,2.0,12.0,83,0.00,CLR,,0.00,WeatherDisplay:10.37,2013-09-06 04:30:00,
2013-09-05 22:45:00,84.1,78.4,29.96,East,96,2.0,12.0,83,0.00,CLR,,0.00,WeatherDisplay:10.37,2013-09-06 04:45:00,
2013-09-05 23:00:00,84.0,78.6,29.95,East,94,7.0,12.0,84,0.00,CLR,,0.00,WeatherDisplay:10.37,2013-09-06 05:00:00,
2013-09-05 23:15:00,84.0,78.2,29.94,East,92,6.0,12.0,83,0.00,CLR,,0.00,WeatherDisplay:10.37,2013-09-06 05:15:00,
2013-09-05 23:30:00,83.8,78.4,29.94,East,94,3.0,12.0,84,0.00,CLR,,0.00,WeatherDisplay:10.37,2013-09-06 05:30:00,
2013-09-05 23:45:00,83.8,78.4,29.93,East,92,8.0,10.0,84,0.00,CLR,,0.00,WeatherDisplay:10.37,2013-09-06 05:45:00,